createdAt,value
2022-09-23T00:01:04.868Z,47.31
2022-09-23T00:06:11.584Z,46.43
2022-09-23T00:11:15.006Z,46.71
2022-09-23T00:16:19.082Z,46.82
2022-09-23T00:21:20.828Z,47.59
2022-09-23T00:26:22.827Z,47.31
2022-09-23T00:31:25.400Z,46.69
2022-09-23T00:36:27.323Z,46.93
2022-09-23T00:41:28.800Z,46.82
2022-09-23T00:46:34.390Z,48.28
2022-09-23T00:51:38.663Z,47.07
2022-09-23T00:56:40.148Z,47.06
2022-09-23T01:01:41.657Z,46.34
2022-09-23T01:06:43.131Z,47.28
2022-09-23T01:12:11.952Z,46.09
2022-09-23T01:17:37.407Z,44.61
2022-09-23T01:22:51.584Z,45.23
2022-09-23T01:28:20.819Z,46.98
2022-09-23T01:33:27.123Z,45.47
2022-09-23T01:38:51.330Z,45.18
2022-09-23T01:44:18.530Z,44.62
2022-09-23T01:49:38.813Z,44.03
2022-09-23T01:54:47.743Z,44.51
2022-09-23T01:59:56.061Z,45.03
2022-09-23T02:05:08.326Z,45.80
2022-09-23T02:10:17.264Z,44.42
2022-09-23T02:15:21.205Z,45.43
2022-09-23T02:20:25.121Z,45.36
2022-09-23T02:25:39.302Z,44.72
2022-09-23T02:30:49.070Z,45.18
2022-09-23T02:36:26.051Z,44.34
2022-09-23T02:41:32.475Z,44.94
2022-09-23T02:46:34.240Z,44.73
2022-09-23T02:51:38.142Z,44.86
2022-09-23T02:56:40.053Z,44.93
2022-09-23T03:02:14.088Z,45.11
2022-09-23T03:07:23.470Z,45.85
2022-09-23T03:12:41.835Z,46.49
2022-09-23T03:18:02.621Z,46.57
2022-09-23T03:23:07.457Z,47.02
2022-09-23T03:28:08.922Z,47.19
2022-09-23T03:33:12.446Z,47.49
2022-09-23T03:38:16.016Z,46.99
2022-09-23T03:43:17.492Z,46.71
2022-09-23T03:48:18.970Z,46.38
2022-09-23T03:53:21.158Z,47.22
2022-09-23T03:58:22.629Z,46.97
2022-09-23T04:03:26.145Z,48.30
2022-09-23T04:08:27.618Z,46.62
2022-09-23T04:13:29.413Z,47.12
2022-09-23T04:18:31.354Z,48.04
2022-09-23T04:23:32.815Z,47.22
2022-09-23T04:28:34.407Z,47.57
2022-09-23T04:33:36.107Z,46.76
2022-09-23T04:38:37.581Z,46.42
2022-09-23T04:43:39.220Z,47.49
2022-09-23T04:48:41.578Z,47.38
2022-09-23T04:53:43.861Z,47.98
2022-09-23T04:58:46.040Z,48.46
2022-09-23T05:03:47.528Z,48.47
2022-09-23T05:08:53.834Z,48.56
2022-09-23T05:13:55.341Z,48.53
2022-09-23T05:18:57.554Z,48.81
2022-09-23T05:24:00.569Z,50.35
2022-09-23T05:29:02.129Z,50.40
2022-09-23T05:34:04.651Z,49.70
2022-09-23T05:39:07.080Z,49.35
2022-09-23T05:44:08.896Z,49.39
2022-09-23T05:49:10.552Z,49.95
2022-09-23T05:54:12.323Z,49.62
2022-09-23T05:59:13.799Z,49.71
2022-09-23T06:04:18.903Z,49.42
2022-09-23T06:09:20.453Z,48.99
2022-09-23T06:14:21.951Z,49.05
2022-09-23T06:19:23.475Z,48.47
2022-09-23T06:24:30.125Z,49.80
2022-09-23T06:29:33.133Z,49.23
2022-09-23T06:34:46.127Z,49.70
2022-09-23T06:39:50.529Z,49.69
2022-09-23T06:44:52.042Z,50.15
2022-09-23T06:49:53.509Z,49.64
2022-09-23T06:54:55.773Z,49.27
2022-09-23T06:59:59.096Z,49.28
2022-09-23T07:05:00.556Z,49.33
2022-09-23T07:10:02.092Z,49.27
2022-09-23T07:15:03.828Z,49.28
2022-09-23T07:20:05.604Z,48.56
2022-09-23T07:25:07.330Z,49.29
2022-09-23T07:30:17.929Z,49.18
2022-09-23T07:35:20.603Z,49.01
2022-09-23T07:40:22.159Z,48.74
2022-09-23T07:45:23.684Z,48.82
2022-09-23T07:50:25.182Z,48.00
2022-09-23T07:55:26.662Z,48.49
2022-09-23T08:00:28.137Z,47.92
2022-09-23T08:05:29.606Z,47.71
2022-09-23T08:10:31.081Z,47.24
2022-09-23T08:15:32.649Z,48.07
2022-09-23T08:20:47.746Z,47.42
2022-09-23T08:25:49.693Z,47.01
2022-09-23T08:30:51.186Z,46.58
2022-09-23T08:35:52.837Z,46.10
2022-09-23T08:41:01.425Z,46.66
2022-09-23T08:46:03.664Z,46.87
2022-09-23T08:51:06.554Z,46.24
2022-09-23T08:56:10.951Z,46.19
2022-09-23T09:01:54.231Z,46.06
2022-09-23T09:07:24.460Z,45.30
2022-09-23T09:12:30.915Z,47.17
2022-09-23T09:17:48.182Z,46.35
2022-09-23T09:22:49.542Z,46.00
2022-09-23T09:27:51.716Z,46.11
2022-09-23T09:33:02.394Z,45.72
2022-09-23T09:38:03.951Z,45.22
2022-09-23T09:43:05.498Z,45.46
2022-09-23T09:48:20.772Z,44.55
2022-09-23T09:53:35.607Z,45.22
2022-09-23T09:58:55.603Z,44.94
2022-09-23T10:03:59.509Z,44.76
2022-09-23T10:09:01.566Z,44.58
2022-09-23T10:14:19.519Z,44.93
2022-09-23T10:19:29.887Z,44.84
2022-09-23T10:24:32.632Z,45.59
2022-09-23T10:29:46.507Z,44.08
2022-09-23T10:34:53.933Z,43.89
2022-09-23T10:40:13.957Z,43.96
2022-09-23T10:45:52.475Z,43.83
2022-09-23T10:50:54.114Z,44.04
2022-09-23T10:56:08.571Z,43.60
2022-09-23T11:01:19.764Z,43.98
2022-09-23T11:07:07.255Z,43.64
2022-09-23T11:12:21.320Z,43.40
2022-09-23T11:17:41.609Z,43.56
2022-09-23T11:23:20.154Z,43.79
2022-09-23T11:28:40.326Z,44.05
2022-09-23T11:34:12.504Z,45.60
2022-09-23T11:39:28.194Z,44.57
2022-09-23T11:44:32.502Z,43.45
2022-09-23T11:49:40.213Z,43.46
2022-09-23T11:55:22.224Z,43.31
2022-09-23T12:00:26.637Z,42.95
2022-09-23T12:05:31.538Z,43.58
2022-09-23T12:10:51.659Z,43.30
2022-09-23T12:16:21.677Z,42.85
2022-09-23T12:22:08.099Z,42.33
2022-09-23T12:27:12.944Z,42.49
2022-09-23T12:32:18.407Z,42.28
2022-09-23T12:37:27.191Z,42.16
2022-09-23T12:42:31.120Z,41.77
2022-09-23T12:47:39.273Z,40.90
2022-09-23T12:52:40.771Z,42.53
2022-09-23T12:57:42.576Z,41.78
2022-09-23T13:02:46.768Z,44.26
2022-09-23T13:07:48.838Z,43.04
2022-09-23T13:12:50.320Z,43.23
2022-09-23T13:17:51.809Z,42.67
2022-09-23T13:22:53.123Z,42.23
2022-09-23T13:27:55.782Z,41.60
2022-09-23T13:33:05.323Z,42.13
2022-09-23T13:38:20.534Z,42.11
2022-09-23T13:43:25.157Z,42.14
2022-09-23T13:48:28.086Z,41.66
2022-09-23T13:53:30.194Z,41.83
2022-09-23T13:58:32.118Z,42.58
2022-09-23T14:03:37.552Z,42.97
2022-09-23T14:08:40.144Z,42.26
2022-09-23T14:13:42.166Z,41.63
2022-09-23T14:18:46.881Z,41.79
2022-09-23T14:23:48.936Z,41.83
2022-09-23T14:28:50.444Z,42.12
2022-09-23T14:33:51.922Z,42.10
2022-09-23T14:38:53.409Z,41.81
2022-09-23T14:43:59.108Z,42.31
2022-09-23T14:49:12.368Z,42.79
2022-09-23T14:54:25.499Z,42.16
2022-09-23T14:59:34.699Z,42.88
2022-09-23T15:04:36.389Z,41.86
2022-09-23T15:09:39.263Z,41.85
2022-09-23T15:14:42.967Z,42.21
2022-09-23T15:19:44.624Z,42.24
2022-09-23T15:24:46.235Z,41.84
2022-09-23T15:29:48.318Z,42.04
2022-09-23T15:34:50.332Z,42.41
2022-09-23T15:39:51.808Z,41.83
2022-09-23T15:44:53.295Z,42.66
2022-09-23T15:49:54.803Z,43.87
2022-09-23T15:54:56.284Z,43.48
2022-09-23T15:59:58.451Z,42.29
2022-09-23T16:05:05.762Z,43.00
2022-09-23T16:10:07.661Z,42.96
2022-09-23T16:15:13.330Z,43.39
2022-09-23T16:20:17.847Z,43.63
2022-09-23T16:25:19.834Z,44.04
2022-09-23T16:30:22.981Z,44.28
2022-09-23T16:35:27.771Z,44.97
2022-09-23T16:40:29.329Z,44.99
2022-09-23T16:45:31.111Z,44.73
2022-09-23T16:50:33.450Z,44.18
2022-09-23T16:55:35.181Z,43.83
2022-09-23T17:00:55.070Z,44.32
2022-09-23T17:05:56.592Z,44.25
2022-09-23T17:10:58.611Z,44.31
2022-09-23T17:16:00.552Z,44.51
2022-09-23T17:21:04.484Z,44.62
2022-09-23T17:26:09.539Z,44.74
2022-09-23T17:31:11.064Z,45.49
2022-09-23T17:36:13.141Z,45.48
2022-09-23T17:41:14.492Z,45.08
2022-09-23T17:46:18.606Z,45.50
2022-09-23T17:51:20.398Z,46.57
2022-09-23T17:56:24.923Z,46.43
2022-09-23T18:01:26.665Z,46.58
2022-09-23T18:06:29.283Z,46.85
2022-09-23T18:11:32.711Z,46.88
2022-09-23T18:16:35.542Z,46.74
2022-09-23T18:21:37.948Z,46.85
2022-09-23T18:26:39.492Z,46.81
2022-09-23T18:31:41.178Z,46.66
2022-09-23T18:36:43.122Z,46.99
2022-09-23T18:41:44.600Z,47.32
2022-09-23T18:46:46.075Z,46.96
2022-09-23T18:51:55.614Z,47.19
2022-09-23T18:56:57.568Z,47.18
2022-09-23T19:01:59.167Z,48.06
2022-09-23T19:07:00.715Z,48.67
2022-09-23T19:12:03.269Z,47.95
2022-09-23T19:17:05.081Z,48.98
2022-09-23T19:22:06.993Z,48.48
2022-09-23T19:27:08.488Z,48.99
2022-09-23T19:32:10.533Z,50.08
2022-09-23T19:37:12.225Z,49.85
2022-09-23T19:42:13.713Z,49.84
2022-09-23T19:47:17.411Z,49.77
2022-09-23T19:52:18.998Z,49.69
2022-09-23T19:57:20.479Z,51.96
2022-09-23T20:02:22.034Z,52.65
2022-09-23T20:07:23.575Z,53.30
2022-09-23T20:12:25.051Z,52.46
2022-09-23T20:17:26.573Z,52.63
2022-09-23T20:22:33.174Z,52.75
2022-09-23T20:27:35.066Z,53.79
2022-09-23T20:32:36.936Z,53.93
2022-09-23T20:37:38.412Z,53.88
2022-09-23T20:42:39.888Z,54.11
2022-09-23T20:47:41.431Z,53.83
2022-09-23T20:52:42.936Z,54.25
2022-09-23T20:57:45.171Z,54.73
2022-09-23T21:02:46.527Z,55.32
2022-09-23T21:07:48.035Z,54.77
2022-09-23T21:12:50.418Z,55.40
2022-09-23T21:17:52.220Z,54.98
2022-09-23T21:22:54.871Z,55.08
2022-09-23T21:27:56.362Z,54.96
2022-09-23T21:32:59.440Z,55.06
2022-09-23T21:38:00.962Z,55.28
2022-09-23T21:43:02.439Z,55.41
2022-09-23T21:48:04.530Z,55.31
2022-09-23T21:53:07.127Z,55.39
2022-09-23T21:58:08.605Z,55.55
2022-09-23T22:03:10.083Z,55.97
2022-09-23T22:08:11.624Z,55.75
2022-09-23T22:13:13.249Z,55.97
2022-09-23T22:18:14.739Z,55.79
2022-09-23T22:23:16.228Z,55.47
2022-09-23T22:28:36.397Z,55.33
2022-09-23T22:33:37.889Z,55.60
2022-09-23T22:38:41.494Z,55.89
2022-09-23T22:43:42.967Z,56.10
2022-09-23T22:48:44.452Z,56.15
2022-09-23T22:53:45.988Z,56.48
2022-09-23T22:58:47.749Z,55.82
2022-09-23T23:03:52.851Z,56.42
2022-09-23T23:08:59.500Z,56.95
2022-09-23T23:14:02.302Z,56.50
2022-09-23T23:19:09.942Z,56.56
2022-09-23T23:24:19.268Z,56.42
2022-09-23T23:29:21.158Z,56.47
2022-09-23T23:34:22.996Z,56.34
2022-09-23T23:39:24.918Z,56.73
2022-09-23T23:44:26.580Z,56.95
2022-09-23T23:49:28.684Z,56.87
2022-09-23T23:54:30.184Z,56.84
2022-09-23T23:59:31.894Z,56.88
